Kingston, Washington
Current Conditions -  °F | °C
As of 11:24 PM on Friday 28 Nov 2014 (Local Time) from KPAE Reporting Station
Light Snow Light Snow  
Wind Chill: -2°   Ceiling: 400
Heat Index:   Visibility: 1mi
Dew Point: -1°   Wind: 5mph
Humidity: 92%   Direction: NA
Pressure: 29.53"   Gusts: NA
Location:  47.8°N, 122.5°W
Report Text: KPAE 290724Z AUTO VRB04KT 1SM R16R/P6000FT -SN BR OVC004 01/M01 A2953 RMK AO2 P0006 T00061006
Loading
Personal Weather Stations






























Interactive Weather Map New forecast layout! Learn more

10-Day Weather Forecast

Advertisements
Track Severe Weather on mobile